Latest Coastal Weather Observations for Red Rocks Point

IDW60701

Issued at 2:02 pm WST Saturday 29 August 2015 (issued every 10 minutes, with the page automatically refreshed every 10 minutes)

About coastal observations | Map of coastal stations | Coastal observations for WA | Marine services | Other Formats
Station Details ID: 011053 Name: RED ROCKS POINT Lat: -32.20 Lon: 127.53 Height: 3.1 m
Data from the previous 72 hours. | See also: Recent months at Red Rocks Point
Date/Time
WST
Temp

°C
Wind Pressure Rain
since 9am
mm
Weather Cloud Vis
km
Sea
Height
m
Swell
Dir
 
Speed
knots
Gust
knots
hPa Trend Height
m
Period
s
Dir
29/02:00pm 16.9 E 15 18 1018.2 - 0.0 - - - - - - -
29/01:30pm 17.0 E 13 17 1018.5 - 0.0 - - - - - - -
29/01:00pm 16.9 E 13 17 1018.8 - 0.0 - - - - - - -
29/12:30pm 16.8 E 14 17 1019.0 - 0.0 - - - - - - -
29/12:00pm 16.6 E 15 18 1019.7 - 0.0 - - - - - - -
29/11:30am 16.6 E 15 19 1020.2 - 0.0 - - - - - - -
29/11:00am 16.5 E 14 16 1020.7 - 0.0 - - - - - - -
29/10:30am 19.5 ENE 14 19 1021.2 - 0.0 - - - - - - -
29/10:00am 19.8 NE 13 19 1021.7 - 0.0 - - - - - - -
29/09:30am 18.8 NE 12 17 1021.9 - 0.0 - - - - - - -
29/09:00am 17.0 NE 13 19 1022.1 - 0.0 - - - - - - -
29/08:30am 15.5 ENE 13 17 1022.3 - 0.0 - - - - - - -
29/08:00am 13.7 ENE 12 16 1022.6 - 0.0 - - - - - - -
29/07:30am 11.9 NE 11 16 1022.7 - 0.0 - - - - - - -
29/07:00am 10.4 NE 10 12 1022.7 - 0.0 - - - - - - -
29/06:30am 9.2 NE 11 14 1022.5 - 0.0 - - - - - - -
29/06:00am 8.4 NE 10 13 1022.2 - 0.0 - - - - - - -
29/05:30am 8.3 NE 10 13 1022.1 - 0.0 - - - - - - -
29/05:00am 8.3 NE 9 11 1022.0 - 0.0 - - - - - - -
29/04:30am 8.6 NE 9 13 1022.0 - 0.0 - - - - - - -
29/04:00am 8.9 NE 8 11 1022.0 - 0.0 - - - - - - -
29/03:30am 9.4 NE 10 13 1022.0 - 0.0 - - - - - - -
29/03:00am 9.6 NE 10 13 1022.0 - 0.0 - - - - - - -
29/02:30am 10.1 NE 12 16 1022.1 - 0.0 - - - - - - -
29/02:00am 10.5 NE 11 15 1022.4 - 0.0 - - - - - - -
29/01:30am 10.9 NE 10 14 1022.7 - 0.0 - - - - - - -
29/01:00am 11.3 NE 11 17 1022.9 - 0.0 - - - - - - -
29/12:30am 11.5 NE 11 16 1023.1 - 0.0 - - - - - - -
29/12:00am 11.8 NE 12 15 1023.3 - 0.0 - - - - - - -
 
Date/Time
WST
Temp

°C
Wind Pressure Rain
since 9am
mm
Weather Cloud Vis
km
Sea
Height
m
Swell
Dir
 
Speed
knots
Gust
knots
hPa Trend Height
m
Period
s
Dir
28/11:30pm 12.3 NE 13 18 1023.4 - 0.0 - - - - - - -
28/11:00pm 12.7 NE 14 18 1023.4 - 0.0 - - - - - - -
28/10:30pm 13.0 NE 15 18 1023.6 - 0.0 - - - - - - -
28/10:00pm 13.2 ENE 16 21 1023.8 - 0.0 - - - - - - -
28/09:30pm 13.4 ENE 15 23 1024.0 - 0.0 - - - - - - -
28/09:00pm 14.3 ENE 23 27 1023.9 - 0.0 - - - - - - -
28/08:30pm 14.2 ENE 22 26 1024.0 - 0.0 - - - - - - -
28/08:00pm 14.4 ENE 21 25 1023.9 - 0.0 - - - - - - -
28/07:30pm 14.3 E 20 24 1023.8 - 0.0 - - - - - - -
28/07:00pm 14.4 E 21 25 1023.6 - 0.0 - - - - - - -
28/06:30pm 14.4 E 21 25 1023.3 - 0.0 - - - - - - -
28/06:00pm 14.5 E 19 23 1023.0 - 0.0 - - - - - - -
28/05:30pm 14.4 E 17 22 1022.8 - 0.0 - - - - - - -
28/05:00pm 14.5 E 18 23 1022.6 - 0.0 - - - - - - -
28/04:30pm 14.7 E 20 23 1022.3 - 0.0 - - - - - - -
28/04:00pm 15.0 E 19 23 1022.2 - 0.0 - - - - - - -
28/03:30pm 15.2 E 18 22 1022.2 - 0.0 - - - - - - -
28/03:00pm 15.3 E 18 21 1022.3 - 0.0 - - - - - - -
28/02:30pm 15.5 E 17 20 1022.4 - 0.0 - - - - - - -
28/02:00pm 15.6 E 16 19 1022.6 - 0.0 - - - - - - -
28/01:30pm 15.7 E 16 20 1023.0 - 0.0 - - - - - - -
28/01:00pm 15.6 E 16 19 1023.2 - 0.0 - - - - - - -
28/12:30pm 15.7 E 16 19 1023.5 - 0.0 - - - - - - -
28/12:00pm 15.4 E 16 18 1024.1 - 0.0 - - - - - - -
28/11:30am 15.3 E 16 19 1024.5 - 0.0 - - - - - - -
28/11:00am 15.3 E 16 19 1025.0 - 0.0 - - - - - - -
28/10:30am 15.5 E 15 19 1025.5 - 0.0 - - - - - - -
28/10:00am 15.0 E 14 16 1025.9 - 0.0 - - - - - - -
28/09:30am 14.7 E 14 17 1026.2 - 0.0 - - - - - - -
28/09:00am 14.1 ENE 15 18 1026.6 - 0.0 - - - - - - -
28/08:30am 13.4 ENE 19 23 1026.8 - 0.0 - - - - - - -
28/08:00am 13.1 NE 15 23 1026.9 - 0.0 - - - - - - -
28/07:30am 11.5 NE 13 18 1026.9 - 0.0 - - - - - - -
28/07:00am 10.3 NE 12 18 1026.8 - 0.0 - - - - - - -
28/06:30am 8.7 NNE 11 15 1026.6 - 0.0 - - - - - - -
28/06:00am 8.0 NNE 9 13 1026.3 - 0.0 - - - - - - -
28/05:30am 8.4 NE 9 11 1026.1 - 0.0 - - - - - - -
28/05:00am 9.0 NE 10 14 1026.0 - 0.0 - - - - - - -
28/04:30am 9.2 NE 11 14 1025.8 - 0.0 - - - - - - -
28/04:00am 9.4 NE 11 14 1025.8 - 0.0 - - - - - - -
28/03:30am 9.3 NE 9 12 1025.6 - 0.0 - - - - - - -
28/03:00am 9.1 NE 9 12 1025.6 - 0.0 - - - - - - -
28/02:30am 9.3 NE 8 12 1025.8 - 0.0 - - - - - - -
28/02:00am 9.5 NE 9 11 1026.2 - 0.0 - - - - - - -
28/01:30am 9.5 NE 7 10 1026.3 - 0.0 - - - - - - -
28/01:00am 10.0 NE 8 11 1026.6 - 0.0 - - - - - - -
28/12:30am 10.3 NE 8 10 1026.8 - 0.0 - - - - - - -
28/12:00am 10.6 NE 8 9 1027.0 - 0.0 - - - - - - -
 
Date/Time
WST
Temp

°C
Wind Pressure Rain
since 9am
mm
Weather Cloud Vis
km
Sea
Height
m
Swell
Dir
 
Speed
knots
Gust
knots
hPa Trend Height
m
Period
s
Dir
27/11:30pm 10.8 NE 8 11 1027.0 - 0.0 - - - - - - -
27/11:00pm 11.1 NE 9 12 1027.2 - 0.0 - - - - - - -
27/10:30pm 11.5 NE 10 13 1027.3 - 0.0 - - - - - - -
27/10:00pm 11.6 NE 9 11 1027.4 - 0.0 - - - - - - -
27/09:30pm 12.1 NE 10 13 1027.7 - 0.0 - - - - - - -
27/09:00pm 12.6 NE 11 15 1027.8 - 0.0 - - - - - - -
27/08:30pm 12.9 NE 12 16 1027.6 - 0.0 - - - - - - -
27/08:00pm 13.5 ENE 16 21 1027.6 - 0.0 - - - - - - -
27/07:30pm 13.7 E 19 23 1027.4 - 0.0 - - - - - - -
27/07:00pm 13.6 E 18 20 1027.1 - 0.0 - - - - - - -
27/06:30pm 13.4 E 18 21 1026.8 - 0.0 - - - - - - -
27/06:00pm 13.6 E 18 21 1026.6 - 0.0 - - - - - - -
27/05:30pm 13.7 E 17 20 1026.4 - 0.0 - - - - - - -
27/05:00pm 13.7 E 17 20 1026.3 - 0.0 - - - - - - -
27/04:30pm 14.1 E 16 19 1026.2 - 0.0 - - - - - - -
27/04:00pm 13.9 E 17 20 1026.1 - 0.0 - - - - - - -
27/03:30pm 14.1 E 16 19 1026.2 - 0.0 - - - - - - -
27/03:00pm 14.5 E 15 18 1026.3 - 0.0 - - - - - - -
27/02:30pm 14.5 E 14 16 1026.3 - 0.0 - - - - - - -
27/02:00pm 14.6 E 15 17 1026.3 - 0.0 - - - - - - -
27/01:30pm 15.0 E 15 17 1026.3 - 0.0 - - - - - - -
27/01:00pm 14.3 E 16 17 1026.4 - 0.0 - - - - - - -
27/12:30pm 15.0 E 14 15 1026.7 - 0.0 - - - - - - -
27/12:00pm 15.2 E 14 16 1027.0 - 0.0 - - - - - - -
27/11:30am 15.6 E 13 15 1027.4 - 0.0 - - - - - - -
27/11:00am 15.6 E 12 13 1027.7 - 0.0 - - - - - - -
27/10:30am 15.3 E 10 11 1028.2 - 0.0 - - - - - - -
27/10:00am 14.3 ENE 10 13 1028.3 - 0.0 - - - - - - -
27/09:30am 14.5 NE 11 14 1028.5 - 0.0 - - - - - - -
27/09:00am 14.6 NE 10 14 1028.5 - 0.0 - - - - - - -
27/08:30am 14.1 NNE 7 12 1028.4 - 0.0 - - - - - - -
27/08:00am 12.4 NNE 9 14 1028.5 - 0.0 - - - - - - -
27/07:30am 10.6 N 9 13 1028.2 - 0.0 - - - - - - -
27/07:00am 8.7 N 10 13 1027.9 - 0.0 - - - - - - -
27/06:30am 7.6 N 9 11 1027.7 - 0.0 - - - - - - -
27/06:00am 7.3 N 9 12 1027.4 - 0.0 - - - - - - -
27/05:30am 7.2 N 9 12 1027.1 - 0.0 - - - - - - -
27/05:00am 7.1 N 9 11 1026.8 - 0.0 - - - - - - -
27/04:30am 6.6 N 9 11 1026.6 - 0.0 - - - - - - -
27/04:00am 6.8 N 9 11 1026.3 - 0.0 - - - - - - -
27/03:30am 6.8 N 9 11 1026.3 - 0.0 - - - - - - -
27/03:00am 6.9 N 9 12 1026.3 - 0.0 - - - - - - -
27/02:30am 7.5 N 9 11 1026.3 - 0.0 - - - - - - -
27/02:00am 8.1 N 8 11 1026.5 - 0.0 - - - - - - -
27/01:30am 8.0 NNE 6 8 1026.5 - 0.0 - - - - - - -
27/01:00am 8.2 NNE 7 9 1026.5 - 0.0 - - - - - - -
27/12:30am 7.8 NE 7 8 1026.7 - 0.0 - - - - - - -
27/12:00am 7.9 NNE 6 8 1026.8 - 0.0 - - - - - - -
 
Date/Time
WST
Temp

°C
Wind Pressure Rain
since 9am
mm
Weather Cloud Vis
km
Sea
Height
m
Swell
Dir
 
Speed
knots
Gust
knots
hPa Trend Height
m
Period
s
Dir
26/11:30pm 8.3 NNE 6 7 1026.9 - 0.0 - - - - - - -
26/11:00pm 8.5 NNE 6 7 1027.0 - 0.0 - - - - - - -
26/10:30pm 8.7 NNE 5 7 1027.1 - 0.0 - - - - - - -
26/10:00pm 9.4 NNE 6 9 1027.2 - 0.0 - - - - - - -
26/09:30pm 9.8 NNE 7 8 1027.1 - 0.0 - - - - - - -
26/09:00pm 11.2 NE 7 8 1027.2 - 0.0 - - - - - - -
26/08:30pm 11.9 NE 7 9 1027.2 - 0.0 - - - - - - -
26/08:00pm 13.4 E 13 15 1027.0 - 0.0 - - - - - - -
26/07:30pm 13.4 E 14 16 1026.9 - 0.0 - - - - - - -
26/07:00pm 13.3 E 14 16 1026.7 - 0.0 - - - - - - -
26/06:30pm 13.4 E 14 16 1026.5 - 0.0 - - - - - - -
26/06:00pm 13.4 E 14 15 1026.1 - 0.0 - - - - - - -
26/05:30pm 13.4 E 14 16 1025.8 - 0.0 - - - - - - -
26/05:00pm 13.4 E 14 16 1025.5 - 0.0 - - - - - - -
26/04:30pm 13.7 E 13 15 1025.5 - 0.0 - - - - - - -
26/04:00pm 13.9 E 13 15 1025.2 - 0.0 - - - - - - -
26/03:30pm 14.2 ESE 12 14 1025.2 - 0.0 - - - - - - -
26/03:00pm 14.6 ESE 11 13 1025.4 - 0.0 - - - - - - -
26/02:30pm 14.7 ESE 10 12 1025.4 - 0.0 - - - - - - -

Other Formats:

Comma delimited format used in spreadsheet applications
http://www.bom.gov.au/fwo/IDW60701/IDW60701.94644.axf

JavaScript Object Notation format (JSON) in row-major order
http://www.bom.gov.au/fwo/IDW60701/IDW60701.94644.json